Time;durP1;ratioP1;P1;durP2;ratioP2;P2;SDS_P1;SDS_P2;PMS_P1;PMS_P2;Temp;Humidity;BMP_temperature;BMP_pressure;BME280_temperature;BME280_humidity;BME280_pressure;Samples;Min_cycle;Max_cycle;Signal;HPM_P1;HPM_P2
2021/04/26 00:00:06;;;;;;;5.65;2.17;;;;;;;;;;5093413;28;20028;-55
2021/04/26 00:02:32;;;;;;;3.50;1.83;;;;;;;;;;5092471;28;20020;-56
2021/04/26 00:05:01;;;;;;;4.68;2.22;;;;;;;;;;5093444;28;20043;-55
2021/04/26 00:07:27;;;;;;;1.90;1.33;;;;;;;;;;5094093;28;20028;-57
2021/04/26 00:09:54;;;;;;;7.07;2.47;;;;;;;;;;5093906;28;20514;-56
2021/04/26 00:12:22;;;;;;;5.10;2.03;;;;;;;;;;5093606;28;20389;-56
2021/04/26 00:14:51;;;;;;;4.22;2.08;;;;;;;;;;5076077;28;20362;-57
2021/04/26 00:17:17;;;;;;;3.35;1.60;;;;;;;;;;5093448;28;20327;-55
2021/04/26 00:19:44;;;;;;;4.55;1.98;;;;;;;;;;5092999;28;20115;-57
2021/04/26 00:22:15;;;;;;;3.72;2.67;;;;;;;;;;5093490;28;20063;-55
2021/04/26 00:24:41;;;;;;;7.90;2.60;;;;;;;;;;5092394;28;20380;-56
2021/04/26 00:27:10;;;;;;;3.85;1.60;;;;;;;;;;5092611;28;20032;-56
2021/04/26 00:29:36;;;;;;;4.07;2.00;;;;;;;;;;5093136;28;20036;-57
2021/04/26 00:32:03;;;;;;;5.28;1.83;;;;;;;;;;5091611;28;20466;-55
2021/04/26 00:34:29;;;;;;;6.05;2.38;;;;;;;;;;5093311;28;20024;-56
2021/04/26 00:36:59;;;;;;;3.20;1.92;;;;;;;;;;5091805;28;20032;-56
2021/04/26 00:39:29;;;;;;;4.72;2.88;;;;;;;;;;5093967;28;20028;-56
2021/04/26 00:41:55;;;;;;;9.25;2.72;;;;;;;;;;5091587;28;20020;-55
2021/04/26 00:44:21;;;;;;;4.45;2.50;;;;;;;;;;5093026;28;20137;-57
2021/04/26 00:46:47;;;;;;;4.13;2.80;;;;;;;;;;5093293;28;20051;-56
2021/04/26 00:49:13;;;;;;;4.03;2.55;;;;;;;;;;5092697;28;20074;-57
2021/04/26 00:51:40;;;;;;;4.90;2.37;;;;;;;;;;5055366;28;1069234;-57
2021/04/26 00:54:06;;;;;;;3.55;2.15;;;;;;;;;;5075562;28;20024;-56
2021/04/26 00:56:36;;;;;;;4.80;2.72;;;;;;;;;;5092905;28;20029;-56
2021/04/26 00:59:05;;;;;;;3.00;2.22;;;;;;;;;;5092328;28;20020;-57
2021/04/26 01:01:34;;;;;;;5.35;2.53;;;;;;;;;;5093681;28;20055;-58
2021/04/26 01:04:00;;;;;;;4.68;2.15;;;;;;;;;;5093608;28;20036;-57
2021/04/26 01:06:26;;;;;;;6.15;3.13;;;;;;;;;;5094087;28;20027;-53
2021/04/26 01:08:55;;;;;;;4.35;2.20;;;;;;;;;;5093525;28;20062;-55
2021/04/26 01:11:22;;;;;;;7.90;2.50;;;;;;;;;;5093508;28;20060;-57
2021/04/26 01:14:04;;;;;;;3.30;2.30;;;;;;;;;;5093791;28;20023;-57
2021/04/26 01:16:57;;;;;;;3.22;2.88;;;;;;;;;;5093512;28;20035;-52
2021/04/26 01:19:43;;;;;;;3.58;2.65;;;;;;;;;;5075546;28;20420;-54
2021/04/26 01:22:28;;;;;;;4.18;2.45;;;;;;;;;;5092188;28;20031;-56
2021/04/26 01:25:09;;;;;;;3.45;2.47;;;;;;;;;;5091712;28;20081;-57
2021/04/26 01:27:47;;;;;;;4.47;2.90;;;;;;;;;;5093043;28;20035;-56
2021/04/26 01:30:13;;;;;;;5.15;2.97;;;;;;;;;;5093398;28;20361;-57
2021/04/26 01:32:46;;;;;;;5.07;2.97;;;;;;;;;;5093282;28;20099;-54
2021/04/26 01:35:13;;;;;;;4.65;2.97;;;;;;;;;;5093442;28;20430;-57
2021/04/26 01:37:43;;;;;;;4.32;2.65;;;;;;;;;;5093117;28;20365;-52
2021/04/26 01:40:11;;;;;;;7.15;3.13;;;;;;;;;;5093528;28;20031;-55
2021/04/26 01:42:39;;;;;;;4.97;3.08;;;;;;;;;;5075927;28;20353;-56
2021/04/26 01:45:08;;;;;;;6.30;3.20;;;;;;;;;;5096060;28;20026;-55
2021/04/26 01:47:39;;;;;;;9.93;2.90;;;;;;;;;;5095759;28;20054;-56
2021/04/26 01:50:07;;;;;;;5.85;3.85;;;;;;;;;;5095907;28;20381;-56
2021/04/26 01:52:34;;;;;;;8.75;3.13;;;;;;;;;;5095091;28;20040;-53
2021/04/26 01:55:07;;;;;;;10.27;3.72;;;;;;;;;;5097072;28;20028;-52
2021/04/26 01:57:35;;;;;;;4.00;3.10;;;;;;;;;;5096142;28;20028;-55
2021/04/26 02:00:05;;;;;;;6.05;3.30;;;;;;;;;;5097262;28;20361;-56
2021/04/26 02:02:32;;;;;;;4.80;3.13;;;;;;;;;;5096903;28;20028;-52
2021/04/26 02:05:04;;;;;;;4.88;3.47;;;;;;;;;;5096048;28;20401;-54
2021/04/26 02:07:30;;;;;;;7.95;4.18;;;;;;;;;;5078745;28;20461;-53
2021/04/26 02:10:08;;;;;;;8.25;3.60;;;;;;;;;;5096524;28;20063;-51
2021/04/26 02:12:37;;;;;;;8.73;3.88;;;;;;;;;;5095097;28;20028;-52
2021/04/26 02:15:07;;;;;;;6.50;4.35;;;;;;;;;;5095242;28;20024;-52
2021/04/26 02:17:43;;;;;;;5.85;3.88;;;;;;;;;;5094326;28;20044;-54
2021/04/26 02:20:13;;;;;;;5.47;3.63;;;;;;;;;;5096034;28;20388;-54
2021/04/26 02:22:40;;;;;;;6.22;4.00;;;;;;;;;;5097085;28;20385;-54
2021/04/26 02:25:14;;;;;;;6.70;4.05;;;;;;;;;;5096144;28;20029;-56
2021/04/26 02:27:40;;;;;;;8.20;4.70;;;;;;;;;;5096933;28;20028;-55
2021/04/26 02:30:09;;;;;;;5.80;4.50;;;;;;;;;;5097115;28;20040;-55
2021/04/26 02:32:54;;;;;;;4.95;3.63;;;;;;;;;;5096454;28;20032;-54
2021/04/26 02:35:24;;;;;;;5.72;4.35;;;;;;;;;;5095858;28;20523;-51
2021/04/26 02:38:01;;;;;;;7.07;4.30;;;;;;;;;;5096058;28;20024;-53
2021/04/26 02:40:29;;;;;;;5.97;4.13;;;;;;;;;;5095827;28;20074;-54
2021/04/26 02:43:00;;;;;;;5.55;3.50;;;;;;;;;;5095961;28;20473;-52
2021/04/26 02:45:27;;;;;;;10.05;4.25;;;;;;;;;;5096353;28;20089;-53
2021/04/26 02:48:00;;;;;;;8.50;4.65;;;;;;;;;;5094713;28;20039;-57
2021/04/26 02:50:32;;;;;;;5.22;4.07;;;;;;;;;;5094884;28;20024;-54
2021/04/26 02:53:01;;;;;;;6.68;4.50;;;;;;;;;;5095499;28;20059;-53
2021/04/26 02:55:39;;;;;;;6.53;4.00;;;;;;;;;;5095072;28;20080;-56
2021/04/26 02:58:09;;;;;;;7.72;3.63;;;;;;;;;;5094681;28;20166;-51
2021/04/26 03:00:35;;;;;;;8.50;4.25;;;;;;;;;;5096181;28;20370;-52
2021/04/26 03:03:04;;;;;;;4.38;3.45;;;;;;;;;;5094341;28;20036;-53
2021/04/26 03:05:34;;;;;;;8.32;3.78;;;;;;;;;;5096275;28;20032;-51
2021/04/26 03:08:03;;;;;;;6.70;4.57;;;;;;;;;;5095923;28;20472;-56
2021/04/26 03:10:30;;;;;;;4.93;4.00;;;;;;;;;;5096024;28;20028;-52
2021/04/26 03:12:57;;;;;;;5.85;4.40;;;;;;;;;;5095110;28;20025;-53
2021/04/26 03:15:25;;;;;;;7.78;4.18;;;;;;;;;;5096264;28;20028;-52
2021/04/26 03:17:54;;;;;;;4.53;3.50;;;;;;;;;;5094834;28;20032;-52
2021/04/26 03:20:25;;;;;;;5.57;3.90;;;;;;;;;;5093781;28;20208;-52
2021/04/26 03:22:51;;;;;;;6.32;3.95;;;;;;;;;;5095877;28;20465;-52
2021/04/26 03:25:26;;;;;;;5.25;3.72;;;;;;;;;;5095071;28;20070;-55
2021/04/26 03:28:07;;;;;;;6.82;4.57;;;;;;;;;;5095397;28;20028;-52
2021/04/26 03:30:43;;;;;;;6.07;4.22;;;;;;;;;;5094141;28;20035;-53
2021/04/26 03:33:13;;;;;;;7.03;5.13;;;;;;;;;;5094973;28;20101;-52
2021/04/26 03:35:44;;;;;;;6.18;4.90;;;;;;;;;;5095616;28;20314;-52
2021/04/26 03:38:11;;;;;;;9.45;4.85;;;;;;;;;;5093928;28;20427;-53
2021/04/26 03:40:41;;;;;;;7.75;4.65;;;;;;;;;;5093915;28;20082;-53
2021/04/26 03:43:11;;;;;;;8.80;4.75;;;;;;;;;;5093829;28;20034;-55
2021/04/26 03:45:40;;;;;;;9.15;4.45;;;;;;;;;;5093649;28;20028;-52
2021/04/26 03:48:12;;;;;;;6.55;4.53;;;;;;;;;;5095144;28;20063;-53
2021/04/26 03:50:38;;;;;;;6.60;4.82;;;;;;;;;;5094926;28;20385;-52
2021/04/26 03:53:07;;;;;;;10.82;4.03;;;;;;;;;;5094566;28;20048;-52
2021/04/26 03:55:38;;;;;;;9.73;3.95;;;;;;;;;;5095378;28;20024;-51
2021/04/26 03:58:07;;;;;;;5.82;3.83;;;;;;;;;;5094611;28;20036;-52
2021/04/26 04:00:34;;;;;;;5.95;4.82;;;;;;;;;;5093365;28;20115;-54
2021/04/26 04:03:04;;;;;;;9.25;4.30;;;;;;;;;;5094004;28;20088;-52
2021/04/26 04:05:30;;;;;;;6.78;4.22;;;;;;;;;;5094420;28;20028;-52
2021/04/26 04:07:59;;;;;;;7.18;5.05;;;;;;;;;;5094240;28;20051;-56
2021/04/26 04:10:29;;;;;;;7.72;4.65;;;;;;;;;;5093246;28;20167;-52
2021/04/26 04:12:58;;;;;;;6.03;4.43;;;;;;;;;;5093270;28;20020;-55
2021/04/26 04:15:24;;;;;;;6.25;4.32;;;;;;;;;;5093230;28;20373;-56
2021/04/26 04:17:51;;;;;;;6.18;4.43;;;;;;;;;;5093690;28;20032;-50
2021/04/26 04:20:20;;;;;;;5.47;3.80;;;;;;;;;;5094307;28;20023;-51
2021/04/26 04:22:47;;;;;;;5.77;4.20;;;;;;;;;;5093884;28;20384;-54
2021/04/26 04:25:17;;;;;;;6.10;4.53;;;;;;;;;;5092861;28;20362;-57
2021/04/26 04:27:44;;;;;;;9.70;4.50;;;;;;;;;;5094180;28;20028;-55
2021/04/26 04:30:14;;;;;;;6.60;4.03;;;;;;;;;;5092606;28;20077;-57
2021/04/26 04:32:42;;;;;;;4.80;3.90;;;;;;;;;;5094420;28;20024;-56
2021/04/26 04:35:11;;;;;;;5.72;4.20;;;;;;;;;;5092502;28;20024;-55
2021/04/26 04:37:44;;;;;;;5.03;3.53;;;;;;;;;;5093718;28;20114;-56
2021/04/26 04:40:14;;;;;;;7.67;4.70;;;;;;;;;;5093701;28;20073;-54
2021/04/26 04:42:41;;;;;;;4.80;3.13;;;;;;;;;;5092299;28;20030;-56
2021/04/26 04:45:09;;;;;;;5.70;4.20;;;;;;;;;;5093136;28;20020;-57
2021/04/26 04:47:44;;;;;;;4.97;3.27;;;;;;;;;;5093612;28;20422;-54
2021/04/26 04:50:17;;;;;;;5.50;4.07;;;;;;;;;;5093022;28;20032;-52
2021/04/26 04:52:50;;;;;;;9.27;3.70;;;;;;;;;;5091917;28;20201;-54
2021/04/26 04:55:16;;;;;;;5.43;3.13;;;;;;;;;;5094434;28;20039;-56
2021/04/26 04:57:46;;;;;;;7.20;3.87;;;;;;;;;;5093744;28;20024;-54
2021/04/26 05:00:12;;;;;;;6.22;3.15;;;;;;;;;;5092711;28;20488;-54
2021/04/26 05:02:41;;;;;;;5.07;3.93;;;;;;;;;;5093372;28;20028;-56
2021/04/26 05:05:07;;;;;;;4.63;4.10;;;;;;;;;;5093618;28;20032;-56
2021/04/26 05:07:36;;;;;;;6.43;3.47;;;;;;;;;;5093902;28;20103;-53
2021/04/26 05:10:05;;;;;;;5.50;4.33;;;;;;;;;;5093897;28;20100;-55
2021/04/26 05:12:36;;;;;;;20.80;4.35;;;;;;;;;;5091835;28;20535;-55
2021/04/26 05:15:20;;;;;;;4.07;3.03;;;;;;;;;;5093745;28;20032;-57
2021/04/26 05:17:49;;;;;;;6.33;3.93;;;;;;;;;;5091346;28;20032;-54
2021/04/26 05:20:17;;;;;;;5.25;3.95;;;;;;;;;;5093559;28;20078;-52
2021/04/26 05:22:45;;;;;;;4.85;3.92;;;;;;;;;;5075586;28;20032;-55
2021/04/26 05:25:18;;;;;;;8.18;3.85;;;;;;;;;;5093256;28;20024;-55
2021/04/26 05:27:46;;;;;;;3.53;2.45;;;;;;;;;;5092299;28;20381;-56
2021/04/26 05:30:18;;;;;;;4.38;3.25;;;;;;;;;;5091527;28;20083;-54
2021/04/26 05:32:49;;;;;;;5.32;2.85;;;;;;;;;;5093625;28;20412;-56
2021/04/26 05:35:21;;;;;;;4.93;3.80;;;;;;;;;;5092983;28;20063;-55
2021/04/26 05:37:47;;;;;;;5.63;3.08;;;;;;;;;;5093106;28;20064;-56
2021/04/26 05:40:16;;;;;;;4.70;3.45;;;;;;;;;;5093235;28;20073;-57
2021/04/26 05:42:45;;;;;;;4.28;3.22;;;;;;;;;;5092162;28;20381;-56
2021/04/26 05:45:18;;;;;;;5.57;3.55;;;;;;;;;;5091758;28;20089;-57
2021/04/26 05:47:50;;;;;;;7.45;3.05;;;;;;;;;;5092500;28;20035;-57
2021/04/26 05:50:16;;;;;;;4.90;3.42;;;;;;;;;;5092388;28;20027;-56
2021/04/26 05:52:54;;;;;;;4.68;3.13;;;;;;;;;;5092772;28;20469;-56
2021/04/26 05:55:20;;;;;;;10.48;3.30;;;;;;;;;;5091492;28;20119;-55
2021/04/26 05:57:46;;;;;;;7.30;3.70;;;;;;;;;;5092546;28;20372;-57
2021/04/26 06:00:13;;;;;;;8.55;2.83;;;;;;;;;;5092652;28;20450;-57
2021/04/26 06:02:48;;;;;;;6.47;3.42;;;;;;;;;;5092679;28;20046;-56
2021/04/26 06:05:14;;;;;;;4.25;3.10;;;;;;;;;;5091810;28;20024;-56
2021/04/26 06:07:47;;;;;;;5.30;3.05;;;;;;;;;;5092715;28;20028;-57
2021/04/26 06:10:16;;;;;;;4.28;3.28;;;;;;;;;;5093987;28;20022;-55
2021/04/26 06:12:42;;;;;;;9.05;3.35;;;;;;;;;;5093084;28;20473;-56
2021/04/26 06:15:18;;;;;;;3.97;2.60;;;;;;;;;;5092945;28;20100;-57
2021/04/26 06:17:47;;;;;;;5.95;3.17;;;;;;;;;;5093160;28;20115;-54
2021/04/26 06:20:16;;;;;;;6.28;3.63;;;;;;;;;;5094131;28;20028;-55
2021/04/26 06:22:47;;;;;;;4.82;3.20;;;;;;;;;;5091597;28;20111;-56
2021/04/26 06:25:17;;;;;;;6.55;2.63;;;;;;;;;;5091240;28;20059;-57
2021/04/26 06:27:45;;;;;;;6.15;3.00;;;;;;;;;;5093264;28;20552;-55
2021/04/26 06:30:11;;;;;;;6.70;4.15;;;;;;;;;;5095374;28;20062;-56
2021/04/26 06:32:38;;;;;;;4.85;3.95;;;;;;;;;;5096519;28;20369;-56
2021/04/26 06:35:04;;;;;;;6.05;4.50;;;;;;;;;;5096869;28;20027;-57
2021/04/26 06:37:31;;;;;;;6.15;3.78;;;;;;;;;;5096333;28;20404;-56
2021/04/26 06:39:57;;;;;;;5.75;4.03;;;;;;;;;;5097032;28;20450;-57
2021/04/26 06:42:29;;;;;;;9.70;3.25;;;;;;;;;;5096370;28;20024;-55
2021/04/26 06:44:57;;;;;;;6.53;3.67;;;;;;;;;;5095133;28;20053;-56
2021/04/26 06:47:29;;;;;;;6.05;3.75;;;;;;;;;;5096521;28;20373;-57
2021/04/26 06:49:55;;;;;;;8.18;3.83;;;;;;;;;;5095281;28;20035;-54
2021/04/26 06:52:23;;;;;;;6.60;3.90;;;;;;;;;;5094814;28;20097;-56
2021/04/26 06:54:49;;;;;;;4.50;3.45;;;;;;;;;;5096860;28;20157;-55
2021/04/26 06:57:15;;;;;;;7.63;3.22;;;;;;;;;;5096306;28;20089;-54
2021/04/26 06:59:44;;;;;;;3.85;3.05;;;;;;;;;;5095391;28;20416;-57
2021/04/26 07:02:17;;;;;;;6.28;4.53;;;;;;;;;;5095731;28;20101;-56
2021/04/26 07:04:46;;;;;;;5.72;3.70;;;;;;;;;;5094821;28;20031;-55
2021/04/26 07:07:13;;;;;;;6.75;4.20;;;;;;;;;;5094307;28;20024;-56
2021/04/26 07:09:39;;;;;;;4.63;3.67;;;;;;;;;;5096158;28;20024;-55
2021/04/26 07:12:11;;;;;;;9.05;3.92;;;;;;;;;;5095818;28;20032;-54
2021/04/26 07:14:37;;;;;;;6.18;3.60;;;;;;;;;;5096157;28;20025;-55
2021/04/26 07:17:06;;;;;;;5.32;3.65;;;;;;;;;;5094733;28;20454;-57
2021/04/26 07:19:32;;;;;;;7.45;3.40;;;;;;;;;;5096363;28;20027;-56
2021/04/26 07:22:01;;;;;;;4.13;3.63;;;;;;;;;;5094334;28;20385;-55
2021/04/26 07:24:29;;;;;;;6.63;4.38;;;;;;;;;;5095758;28;20024;-55
2021/04/26 07:26:58;;;;;;;4.78;3.58;;;;;;;;;;5094886;28;20028;-55
2021/04/26 07:29:24;;;;;;;7.40;4.50;;;;;;;;;;5095988;28;20020;-56
2021/04/26 07:31:53;;;;;;;5.03;3.42;;;;;;;;;;5095790;28;20028;-55
2021/04/26 07:34:22;;;;;;;5.85;3.65;;;;;;;;;;5095687;28;20024;-56
2021/04/26 07:36:50;;;;;;;7.13;4.35;;;;;;;;;;5094209;28;20031;-55
2021/04/26 07:39:19;;;;;;;4.47;3.38;;;;;;;;;;5094997;28;20123;-56
2021/04/26 07:41:47;;;;;;;6.50;4.32;;;;;;;;;;5095017;28;20024;-56
2021/04/26 07:44:14;;;;;;;4.60;3.55;;;;;;;;;;5095398;28;20047;-57
2021/04/26 07:46:40;;;;;;;6.57;4.38;;;;;;;;;;5095245;28;20024;-57
2021/04/26 07:49:06;;;;;;;5.00;3.60;;;;;;;;;;5095600;28;20024;-57
2021/04/26 07:51:33;;;;;;;5.97;3.47;;;;;;;;;;5095873;28;20110;-57
2021/04/26 07:54:02;;;;;;;9.13;4.07;;;;;;;;;;5093913;28;20044;-56
2021/04/26 07:56:31;;;;;;;4.65;3.53;;;;;;;;;;5093714;28;20024;-57
2021/04/26 07:58:59;;;;;;;10.40;4.38;;;;;;;;;;5094642;28;20036;-56
2021/04/26 08:01:28;;;;;;;6.22;3.95;;;;;;;;;;5093759;28;20031;-54
2021/04/26 08:03:54;;;;;;;5.40;3.60;;;;;;;;;;5095069;28;20047;-54
2021/04/26 08:06:23;;;;;;;5.95;4.07;;;;;;;;;;5094805;28;20485;-57
2021/04/26 08:08:50;;;;;;;4.25;3.30;;;;;;;;;;5095085;28;20054;-56
2021/04/26 08:11:16;;;;;;;6.60;3.72;;;;;;;;;;5095310;28;20020;-57
2021/04/26 08:13:45;;;;;;;4.60;3.65;;;;;;;;;;5094712;28;20477;-57
2021/04/26 08:16:14;;;;;;;6.10;4.10;;;;;;;;;;5093486;28;20036;-56
2021/04/26 08:18:40;;;;;;;7.65;3.20;;;;;;;;;;5094466;28;20071;-55
2021/04/26 08:21:07;;;;;;;4.63;3.55;;;;;;;;;;5093830;28;20375;-56
2021/04/26 08:23:35;;;;;;;4.22;3.83;;;;;;;;;;5094321;28;20525;-57
2021/04/26 08:26:02;;;;;;;8.70;4.35;;;;;;;;;;5094368;28;20024;-55
2021/04/26 08:28:31;;;;;;;5.65;4.15;;;;;;;;;;5093375;28;20050;-56
2021/04/26 08:30:58;;;;;;;8.23;3.60;;;;;;;;;;5094089;28;20111;-57
2021/04/26 08:33:24;;;;;;;5.35;3.95;;;;;;;;;;5076206;28;20467;-56
2021/04/26 08:35:50;;;;;;;9.00;5.10;;;;;;;;;;5093287;28;20104;-56
2021/04/26 08:38:18;;;;;;;7.88;3.92;;;;;;;;;;5094107;28;20065;-56
2021/04/26 08:40:44;;;;;;;7.85;4.07;;;;;;;;;;5095067;28;20035;-57
2021/04/26 08:43:10;;;;;;;6.45;4.25;;;;;;;;;;5092252;28;20085;-57
2021/04/26 08:45:36;;;;;;;5.55;4.13;;;;;;;;;;5093366;28;20404;-57
2021/04/26 08:48:03;;;;;;;10.60;4.32;;;;;;;;;;5092399;28;20062;-56
2021/04/26 08:50:30;;;;;;;6.38;4.30;;;;;;;;;;5076921;28;20335;-54
2021/04/26 08:52:56;;;;;;;5.90;3.88;;;;;;;;;;5093722;28;20057;-54
2021/04/26 08:55:22;;;;;;;7.20;4.03;;;;;;;;;;5092392;28;20050;-56
2021/04/26 08:57:53;;;;;;;8.02;4.22;;;;;;;;;;5093905;28;20417;-53
2021/04/26 09:00:20;;;;;;;5.53;3.53;;;;;;;;;;5094611;28;20024;-57
2021/04/26 09:02:47;;;;;;;7.53;4.35;;;;;;;;;;5092418;28;20123;-55
2021/04/26 09:05:26;;;;;;;5.65;4.30;;;;;;;;;;5093841;28;20035;-57
2021/04/26 09:07:56;;;;;;;8.60;3.38;;;;;;;;;;5093905;28;20043;-56
2021/04/26 09:10:41;;;;;;;6.23;3.97;;;;;;;;;;5093180;28;20032;-57
2021/04/26 09:13:27;;;;;;;4.10;3.35;;;;;;;;;;5092490;28;20027;-57
2021/04/26 09:16:01;;;;;;;5.72;4.05;;;;;;;;;;5090837;28;20067;-57
2021/04/26 09:18:42;;;;;;;6.38;4.50;;;;;;;;;;5092147;28;20079;-56
2021/04/26 09:21:43;;;;;;;4.60;3.28;;;;;;;;;;5092318;28;20028;-55
2021/04/26 09:24:28;;;;;;;6.10;3.85;;;;;;;;;;5093789;28;20107;-55
2021/04/26 09:27:08;;;;;;;8.45;4.20;;;;;;;;;;5093178;28;20398;-57
2021/04/26 09:29:35;;;;;;;8.93;3.92;;;;;;;;;;5091510;28;20024;-56
2021/04/26 09:32:11;;;;;;;6.70;4.47;;;;;;;;;;5092783;28;20028;-56
2021/04/26 09:34:41;;;;;;;5.15;3.88;;;;;;;;;;5092684;28;20458;-56
2021/04/26 09:37:10;;;;;;;7.45;4.05;;;;;;;;;;5091651;28;20115;-57
2021/04/26 09:39:54;;;;;;;10.82;4.53;;;;;;;;;;5092856;28;20038;-55
2021/04/26 09:42:39;;;;;;;4.28;3.15;;;;;;;;;;5093252;28;20032;-57
2021/04/26 09:45:24;;;;;;;5.13;4.28;;;;;;;;;;5091420;28;20028;-53
2021/04/26 09:48:08;;;;;;;7.38;4.70;;;;;;;;;;5092629;28;20047;-56
2021/04/26 09:50:34;;;;;;;7.57;3.90;;;;;;;;;;5091918;28;20028;-56
2021/04/26 09:53:07;;;;;;;8.07;3.92;;;;;;;;;;5092733;28;20142;-55
2021/04/26 09:55:33;;;;;;;4.50;3.72;;;;;;;;;;5092169;28;20111;-53
2021/04/26 09:57:59;;;;;;;6.15;4.32;;;;;;;;;;5091699;28;20035;-57
2021/04/26 10:00:25;;;;;;;6.50;4.70;;;;;;;;;;5092115;28;20024;-57
2021/04/26 10:02:51;;;;;;;6.60;3.83;;;;;;;;;;5092414;28;20512;-55
2021/04/26 10:05:18;;;;;;;6.30;4.65;;;;;;;;;;5094456;28;20390;-58
2021/04/26 10:07:44;;;;;;;4.22;3.40;;;;;;;;;;5097195;28;20361;-58
2021/04/26 10:10:10;;;;;;;8.27;4.13;;;;;;;;;;5095542;28;20028;-56
2021/04/26 10:12:39;;;;;;;5.05;4.00;;;;;;;;;;5097154;28;20106;-55
2021/04/26 10:15:06;;;;;;;5.93;4.50;;;;;;;;;;5097184;28;20028;-57
2021/04/26 10:17:35;;;;;;;6.85;3.95;;;;;;;;;;5095200;28;20484;-57
2021/04/26 10:20:01;;;;;;;9.95;4.45;;;;;;;;;;5095344;28;20027;-57
2021/04/26 10:22:41;;;;;;;5.43;4.05;;;;;;;;;;5096464;28;20375;-56
2021/04/26 10:25:08;;;;;;;4.60;3.50;;;;;;;;;;5096429;28;20373;-58
2021/04/26 10:27:37;;;;;;;9.82;4.30;;;;;;;;;;5096353;28;20032;-58
2021/04/26 10:30:07;;;;;;;7.22;4.05;;;;;;;;;;5096780;28;20107;-57
2021/04/26 10:32:52;;;;;;;8.07;4.78;;;;;;;;;;5094935;28;20139;-58
2021/04/26 10:35:18;;;;;;;4.38;3.42;;;;;;;;;;5095321;28;20024;-56
2021/04/26 10:37:44;;;;;;;6.75;4.00;;;;;;;;;;5094843;28;20056;-56
2021/04/26 10:40:13;;;;;;;5.35;3.85;;;;;;;;;;5094883;28;20028;-56
2021/04/26 10:42:47;;;;;;;5.18;3.72;;;;;;;;;;5095992;28;20069;-55
2021/04/26 10:45:13;;;;;;;4.53;3.35;;;;;;;;;;5096055;28;20086;-54
2021/04/26 10:47:45;;;;;;;4.60;3.63;;;;;;;;;;5096664;28;20450;-55
2021/04/26 10:50:12;;;;;;;10.98;3.97;;;;;;;;;;5096647;28;20114;-58
2021/04/26 10:52:40;;;;;;;5.18;4.35;;;;;;;;;;5096077;28;20055;-58
2021/04/26 10:55:06;;;;;;;5.82;3.50;;;;;;;;;;5096340;28;20031;-57
2021/04/26 10:57:47;;;;;;;5.20;3.95;;;;;;;;;;5095935;28;20035;-58
2021/04/26 11:00:13;;;;;;;;;;;;;;;;;;5096322;28;20373;-58
2021/04/26 11:02:39;;;;;;;5.57;3.45;;;;;;;;;;5094361;28;19904;-57
2021/04/26 11:05:18;;;;;;;7.70;3.70;;;;;;;;;;5095522;28;20024;-58
2021/04/26 11:07:49;;;;;;;7.75;3.25;;;;;;;;;;5095569;28;20392;-58
2021/04/26 11:10:27;;;;;;;4.65;3.08;;;;;;;;;;5094533;28;20406;-58
2021/04/26 11:12:54;;;;;;;5.70;3.78;;;;;;;;;;5095279;28;20116;-57
2021/04/26 11:15:22;;;;;;;4.72;3.22;;;;;;;;;;5094513;28;20052;-58
2021/04/26 11:17:52;;;;;;;4.30;3.30;;;;;;;;;;5094325;28;20039;-56
2021/04/26 11:20:20;;;;;;;8.05;3.60;;;;;;;;;;5095666;28;20046;-58
2021/04/26 11:22:46;;;;;;;9.52;4.13;;;;;;;;;;5095643;28;20023;-58
2021/04/26 11:25:31;;;;;;;4.40;2.80;;;;;;;;;;5095087;28;20114;-58
2021/04/26 11:27:58;;;;;;;5.75;3.60;;;;;;;;;;5095526;28;20024;-57
2021/04/26 11:30:26;;;;;;;4.85;2.90;;;;;;;;;;5095356;28;20020;-58
2021/04/26 11:32:56;;;;;;;6.03;3.50;;;;;;;;;;5095729;28;20473;-56
2021/04/26 11:35:26;;;;;;;5.55;3.08;;;;;;;;;;5095213;28;20035;-56
2021/04/26 11:37:52;;;;;;;4.05;2.95;;;;;;;;;;5095370;28;20066;-56
2021/04/26 11:40:19;;;;;;;4.45;3.35;;;;;;;;;;5094781;28;20491;-58
2021/04/26 11:42:45;;;;;;;6.43;3.72;;;;;;;;;;5094751;28;20031;-58
2021/04/26 11:45:12;;;;;;;4.30;3.72;;;;;;;;;;5095169;28;20140;-58
2021/04/26 11:47:38;;;;;;;5.18;3.55;;;;;;;;;;5095058;28;20469;-55
2021/04/26 11:50:05;;;;;;;8.10;3.33;;;;;;;;;;5095498;28;20050;-55
2021/04/26 11:52:32;;;;;;;4.30;3.58;;;;;;;;;;5095011;28;20048;-53
2021/04/26 11:55:04;;;;;;;5.32;3.65;;;;;;;;;;5094628;28;20020;-56
2021/04/26 11:57:50;;;;;;;4.72;3.42;;;;;;;;;;5094756;28;20040;-56
2021/04/26 12:00:24;;;;;;;3.90;2.78;;;;;;;;;;5095154;28;20024;-56
2021/04/26 12:02:51;;;;;;;4.28;3.38;;;;;;;;;;5095084;28;20020;-58
2021/04/26 12:05:22;;;;;;;5.18;4.00;;;;;;;;;;5094756;28;20020;-59
2021/04/26 12:07:49;;;;;;;4.93;3.30;;;;;;;;;;5094200;28;20034;-57
2021/04/26 12:10:17;;;;;;;4.65;3.45;;;;;;;;;;5095052;28;20024;-58
2021/04/26 12:12:44;;;;;;;4.40;2.50;;;;;;;;;;5094653;28;20051;-58
2021/04/26 12:15:20;;;;;;;6.57;3.33;;;;;;;;;;5094915;28;20101;-57
2021/04/26 12:17:51;;;;;;;4.30;3.15;;;;;;;;;;5094585;28;20042;-56
2021/04/26 12:20:18;;;;;;;5.40;2.72;;;;;;;;;;5094359;28;20439;-57
2021/04/26 12:22:45;;;;;;;4.90;3.15;;;;;;;;;;5093878;28;20492;-58
2021/04/26 12:25:12;;;;;;;4.65;2.65;;;;;;;;;;5093988;28;20409;-58
2021/04/26 12:27:38;;;;;;;4.22;3.10;;;;;;;;;;5093560;28;20024;-58
2021/04/26 12:30:10;;;;;;;4.03;2.75;;;;;;;;;;5094367;28;20020;-58
2021/04/26 12:32:36;;;;;;;5.40;3.17;;;;;;;;;;5093957;28;20039;-57
2021/04/26 12:35:04;;;;;;;5.28;2.78;;;;;;;;;;5093922;28;20373;-57
2021/04/26 12:37:31;;;;;;;4.57;2.85;;;;;;;;;;5092607;28;20544;-56
2021/04/26 12:40:16;;;;;;;3.50;2.40;;;;;;;;;;5093802;28;20024;-58
2021/04/26 12:42:45;;;;;;;4.20;3.05;;;;;;;;;;5094118;28;20017;-58
2021/04/26 12:45:16;;;;;;;4.18;2.85;;;;;;;;;;5093848;28;20020;-58
2021/04/26 12:47:53;;;;;;;3.75;2.53;;;;;;;;;;5093752;28;20035;-54
2021/04/26 12:50:23;;;;;;;4.95;3.28;;;;;;;;;;5093756;28;20020;-55
2021/04/26 12:53:05;;;;;;;3.80;2.60;;;;;;;;;;5093937;28;20052;-55
2021/04/26 12:55:31;;;;;;;3.95;2.88;;;;;;;;;;5093451;28;20039;-57
2021/04/26 12:58:10;;;;;;;5.82;2.50;;;;;;;;;;5093404;28;20060;-56
2021/04/26 13:00:37;;;;;;;3.63;2.40;;;;;;;;;;5093803;28;20024;-57
2021/04/26 13:03:22;;;;;;;2.92;2.05;;;;;;;;;;5093316;28;20020;-55
2021/04/26 13:05:48;;;;;;;2.60;2.05;;;;;;;;;;5093232;28;20022;-57
2021/04/26 13:08:15;;;;;;;3.90;2.53;;;;;;;;;;5093352;28;20090;-56
2021/04/26 13:10:41;;;;;;;4.13;2.47;;;;;;;;;;5093802;28;20024;-56
2021/04/26 13:13:07;;;;;;;5.05;2.83;;;;;;;;;;5093200;28;20046;-56
2021/04/26 13:15:33;;;;;;;4.25;2.78;;;;;;;;;;5093213;28;20111;-56
2021/04/26 13:18:12;;;;;;;5.85;2.40;;;;;;;;;;5092920;28;20042;-57
2021/04/26 13:20:39;;;;;;;4.07;2.30;;;;;;;;;;5093714;28;20031;-55
2021/04/26 13:23:15;;;;;;;3.42;1.73;;;;;;;;;;5092530;28;20134;-55
2021/04/26 13:25:42;;;;;;;3.25;2.33;;;;;;;;;;5093024;28;20451;-57
2021/04/26 13:28:08;;;;;;;4.18;2.58;;;;;;;;;;5093391;28;20337;-56
2021/04/26 13:30:34;;;;;;;7.50;2.58;;;;;;;;;;5093386;28;20419;-56
2021/04/26 13:33:00;;;;;;;6.78;2.72;;;;;;;;;;5093059;28;20020;-56
2021/04/26 13:35:26;;;;;;;4.88;2.67;;;;;;;;;;5093102;28;20024;-56
2021/04/26 13:37:52;;;;;;;4.25;2.83;;;;;;;;;;5092823;28;20410;-57
2021/04/26 13:40:18;;;;;;;3.17;2.30;;;;;;;;;;5096270;28;20020;-57
2021/04/26 13:42:44;;;;;;;4.55;2.70;;;;;;;;;;5097148;28;20028;-55
2021/04/26 13:45:11;;;;;;;4.45;2.67;;;;;;;;;;5097148;28;20081;-56
2021/04/26 13:47:37;;;;;;;5.32;3.05;;;;;;;;;;5096692;28;20024;-54
2021/04/26 13:50:03;;;;;;;3.45;2.67;;;;;;;;;;5097477;28;20098;-56
2021/04/26 13:52:29;;;;;;;2.35;1.98;;;;;;;;;;5096903;28;20078;-56
2021/04/26 13:54:56;;;;;;;4.03;2.72;;;;;;;;;;5097388;28;20024;-57
2021/04/26 13:57:22;;;;;;;4.47;2.70;;;;;;;;;;5097133;28;20066;-58
2021/04/26 13:59:48;;;;;;;3.92;2.70;;;;;;;;;;5096858;28;20032;-57
2021/04/26 14:02:14;;;;;;;3.25;2.47;;;;;;;;;;5096919;28;20059;-58
2021/04/26 14:04:40;;;;;;;6.05;2.67;;;;;;;;;;5096596;28;20084;-58
2021/04/26 14:07:06;;;;;;;3.55;2.55;;;;;;;;;;5096586;28;20032;-58
2021/04/26 14:09:32;;;;;;;3.35;2.50;;;;;;;;;;5096044;28;20055;-58
2021/04/26 14:11:58;;;;;;;3.67;2.60;;;;;;;;;;5096311;28;20027;-58
2021/04/26 14:14:24;;;;;;;3.85;2.92;;;;;;;;;;5096338;28;20024;-57
2021/04/26 14:16:50;;;;;;;6.10;2.67;;;;;;;;;;5095012;28;20037;-57
2021/04/26 14:19:16;;;;;;;5.78;2.90;;;;;;;;;;5096446;28;20043;-56
2021/04/26 14:21:42;;;;;;;3.95;2.95;;;;;;;;;;5095946;28;20060;-57
2021/04/26 14:24:08;;;;;;;5.90;2.90;;;;;;;;;;5096532;28;20093;-57
2021/04/26 14:26:34;;;;;;;3.97;2.85;;;;;;;;;;5096339;28;20028;-57
2021/04/26 14:29:00;;;;;;;4.10;2.13;;;;;;;;;;5096271;28;20038;-57
2021/04/26 14:31:26;;;;;;;8.52;3.03;;;;;;;;;;5094744;28;20028;-57
2021/04/26 14:33:52;;;;;;;3.20;2.50;;;;;;;;;;5096169;28;20107;-58
2021/04/26 14:36:18;;;;;;;3.00;2.15;;;;;;;;;;5096430;28;20028;-57
2021/04/26 14:38:44;;;;;;;3.80;2.28;;;;;;;;;;5095893;28;20028;-56
2021/04/26 14:41:10;;;;;;;4.30;2.03;;;;;;;;;;5096184;28;20028;-57
2021/04/26 14:43:36;;;;;;;4.18;2.50;;;;;;;;;;5095837;28;20076;-58
2021/04/26 14:46:04;;;;;;;3.92;2.72;;;;;;;;;;5095837;28;20024;-57
2021/04/26 14:48:30;;;;;;;2.65;2.08;;;;;;;;;;5095459;28;20418;-58
2021/04/26 14:50:56;;;;;;;4.57;1.95;;;;;;;;;;5095969;28;20427;-57
2021/04/26 14:53:22;;;;;;;3.67;2.35;;;;;;;;;;5095794;28;20185;-57
2021/04/26 14:55:48;;;;;;;3.38;2.30;;;;;;;;;;5095854;28;20035;-57